sensor_id;sensor_type;location;lat;lon;timestamp;pressure;altitude;pressure_sealevel;temperature;humidity
11682;BME280;5897;42.640;23.310;2023-04-28T00:01:36;94113.41;;;6.89;54.51
11682;BME280;5897;42.640;23.310;2023-04-28T00:04:03;94110.75;;;6.85;54.56
11682;BME280;5897;42.640;23.310;2023-04-28T00:06:29;94109.31;;;6.74;54.56
11682;BME280;5897;42.640;23.310;2023-04-28T00:08:56;94113.94;;;6.73;54.76
11682;BME280;5897;42.640;23.310;2023-04-28T00:11:24;94119.34;;;6.66;55.39
11682;BME280;5897;42.640;23.310;2023-04-28T00:13:51;94120.88;;;6.67;55.27
11682;BME280;5897;42.640;23.310;2023-04-28T00:16:18;94112.94;;;6.57;55.51
11682;BME280;5897;42.640;23.310;2023-04-28T00:18:45;94115.94;;;6.62;55.55
11682;BME280;5897;42.640;23.310;2023-04-28T00:21:12;94117.47;;;6.63;55.48
11682;BME280;5897;42.640;23.310;2023-04-28T00:23:38;94110.59;;;6.59;55.75
11682;BME280;5897;42.640;23.310;2023-04-28T00:26:05;94111.06;;;6.50;55.79
11682;BME280;5897;42.640;23.310;2023-04-28T00:28:33;94111.50;;;6.42;56.32
11682;BME280;5897;42.640;23.310;2023-04-28T00:31:00;94109.91;;;6.51;56.06
11682;BME280;5897;42.640;23.310;2023-04-28T00:33:27;94095.03;;;6.40;55.80
11682;BME280;5897;42.640;23.310;2023-04-28T00:35:58;94118.06;;;6.37;56.14
11682;BME280;5897;42.640;23.310;2023-04-28T00:38:25;94106.16;;;6.38;56.05
11682;BME280;5897;42.640;23.310;2023-04-28T00:40:52;94126.91;;;6.34;56.48
11682;BME280;5897;42.640;23.310;2023-04-28T00:43:18;94124.16;;;6.41;56.37
11682;BME280;5897;42.640;23.310;2023-04-28T00:45:47;94122.72;;;6.30;56.23
11682;BME280;5897;42.640;23.310;2023-04-28T00:48:14;94126.22;;;6.23;57.02
11682;BME280;5897;42.640;23.310;2023-04-28T00:50:42;94132.69;;;6.29;56.54
11682;BME280;5897;42.640;23.310;2023-04-28T00:53:09;94129.59;;;6.34;57.27
11682;BME280;5897;42.640;23.310;2023-04-28T00:55:36;94128.09;;;6.26;57.18
11682;BME280;5897;42.640;23.310;2023-04-28T00:58:04;94122.06;;;6.12;56.92
11682;BME280;5897;42.640;23.310;2023-04-28T01:00:31;94126.19;;;6.27;57.27
11682;BME280;5897;42.640;23.310;2023-04-28T01:02:59;94121.28;;;6.11;56.94
11682;BME280;5897;42.640;23.310;2023-04-28T01:05:27;94134.63;;;6.25;56.75
11682;BME280;5897;42.640;23.310;2023-04-28T01:07:54;94132.00;;;6.11;56.40
11682;BME280;5897;42.640;23.310;2023-04-28T01:10:21;94136.66;;;6.07;57.18
11682;BME280;5897;42.640;23.310;2023-04-28T01:12:48;94135.50;;;6.08;56.26
11682;BME280;5897;42.640;23.310;2023-04-28T01:15:16;94109.91;;;5.93;55.88
11682;BME280;5897;42.640;23.310;2023-04-28T01:17:44;94139.69;;;6.09;55.76
11682;BME280;5897;42.640;23.310;2023-04-28T01:20:12;94139.38;;;6.00;55.99
11682;BME280;5897;42.640;23.310;2023-04-28T01:22:39;94138.63;;;6.00;56.17
11682;BME280;5897;42.640;23.310;2023-04-28T01:25:08;94140.53;;;5.99;56.39
11682;BME280;5897;42.640;23.310;2023-04-28T01:27:35;94137.44;;;6.04;55.91
11682;BME280;5897;42.640;23.310;2023-04-28T01:30:02;94138.63;;;6.00;55.69
11682;BME280;5897;42.640;23.310;2023-04-28T01:32:29;94129.03;;;5.99;55.54
11682;BME280;5897;42.640;23.310;2023-04-28T01:34:56;94146.59;;;6.10;55.78
11682;BME280;5897;42.640;23.310;2023-04-28T01:37:22;94137.81;;;6.03;55.79
11682;BME280;5897;42.640;23.310;2023-04-28T01:39:49;94143.56;;;6.05;55.87
11682;BME280;5897;42.640;23.310;2023-04-28T01:42:17;94140.50;;;6.03;55.88
11682;BME280;5897;42.640;23.310;2023-04-28T01:44:44;94143.91;;;6.10;55.60
11682;BME280;5897;42.640;23.310;2023-04-28T01:47:11;94144.31;;;6.09;55.86
11682;BME280;5897;42.640;23.310;2023-04-28T01:49:38;94132.06;;;6.04;55.93
11682;BME280;5897;42.640;23.310;2023-04-28T01:52:05;94144.00;;;5.96;56.03
11682;BME280;5897;42.640;23.310;2023-04-28T01:54:32;94135.59;;;5.94;56.14
11682;BME280;5897;42.640;23.310;2023-04-28T01:56:59;94132.47;;;5.99;56.53
11682;BME280;5897;42.640;23.310;2023-04-28T01:59:28;94135.19;;;5.96;56.90
11682;BME280;5897;42.640;23.310;2023-04-28T02:01:54;94129.84;;;5.92;56.80
11682;BME280;5897;42.640;23.310;2023-04-28T02:04:21;94134.78;;;5.97;57.15
11682;BME280;5897;42.640;23.310;2023-04-28T02:06:48;94144.78;;;5.93;57.59
11682;BME280;5897;42.640;23.310;2023-04-28T02:09:15;94145.13;;;5.99;57.42
11682;BME280;5897;42.640;23.310;2023-04-28T02:11:42;94140.56;;;5.92;57.77
11682;BME280;5897;42.640;23.310;2023-04-28T02:14:09;94136.00;;;5.89;57.72
11682;BME280;5897;42.640;23.310;2023-04-28T02:16:37;94127.53;;;5.91;57.40
11682;BME280;5897;42.640;23.310;2023-04-28T02:19:04;94155.09;;;5.98;57.63
11682;BME280;5897;42.640;23.310;2023-04-28T02:21:31;94153.56;;;5.97;57.41
11682;BME280;5897;42.640;23.310;2023-04-28T02:23:58;94148.59;;;5.92;57.70
11682;BME280;5897;42.640;23.310;2023-04-28T02:26:25;94153.22;;;5.92;57.62
11682;BME280;5897;42.640;23.310;2023-04-28T02:28:52;94152.47;;;5.88;58.00
11682;BME280;5897;42.640;23.310;2023-04-28T02:31:19;94158.16;;;6.00;57.85
11682;BME280;5897;42.640;23.310;2023-04-28T02:33:47;94159.38;;;5.85;57.75
11682;BME280;5897;42.640;23.310;2023-04-28T02:36:13;94157.44;;;5.89;58.06
11682;BME280;5897;42.640;23.310;2023-04-28T02:38:40;94155.88;;;5.95;57.79
11682;BME280;5897;42.640;23.310;2023-04-28T02:41:07;94162.06;;;5.85;57.81
11682;BME280;5897;42.640;23.310;2023-04-28T02:43:34;94159.00;;;5.80;57.73
11682;BME280;5897;42.640;23.310;2023-04-28T02:46:02;94165.16;;;5.73;58.63
11682;BME280;5897;42.640;23.310;2023-04-28T02:48:29;94165.91;;;5.84;58.08
11682;BME280;5897;42.640;23.310;2023-04-28T02:50:57;94149.81;;;5.70;58.20
11682;BME280;5897;42.640;23.310;2023-04-28T02:53:24;94169.72;;;5.76;58.04
11682;BME280;5897;42.640;23.310;2023-04-28T02:55:51;94176.63;;;5.74;58.33
11682;BME280;5897;42.640;23.310;2023-04-28T02:58:19;94167.09;;;5.62;57.93
11682;BME280;5897;42.640;23.310;2023-04-28T03:00:46;94166.38;;;5.51;58.22
11682;BME280;5897;42.640;23.310;2023-04-28T03:03:12;94177.03;;;5.62;58.00
11682;BME280;5897;42.640;23.310;2023-04-28T03:05:39;94189.69;;;5.65;57.85
11682;BME280;5897;42.640;23.310;2023-04-28T03:08:07;94177.03;;;5.65;58.00
11682;BME280;5897;42.640;23.310;2023-04-28T03:10:34;94179.72;;;5.62;57.49
11682;BME280;5897;42.640;23.310;2023-04-28T03:13:01;94179.75;;;5.58;57.19
11682;BME280;5897;42.640;23.310;2023-04-28T03:15:28;94178.63;;;5.52;58.07
11682;BME280;5897;42.640;23.310;2023-04-28T03:17:54;94181.66;;;5.58;57.40
11682;BME280;5897;42.640;23.310;2023-04-28T03:20:21;94180.13;;;5.57;57.27
11682;BME280;5897;42.640;23.310;2023-04-28T03:22:48;94175.91;;;5.59;56.88
11682;BME280;5897;42.640;23.310;2023-04-28T03:25:16;94185.06;;;5.65;56.83
11682;BME280;5897;42.640;23.310;2023-04-28T03:27:43;94164.88;;;5.43;56.69
11682;BME280;5897;42.640;23.310;2023-04-28T03:30:11;94180.16;;;5.50;57.02
11682;BME280;5897;42.640;23.310;2023-04-28T03:32:38;94197.31;;;5.63;56.85
11682;BME280;5897;42.640;23.310;2023-04-28T03:35:05;94217.25;;;5.58;56.27
11682;BME280;5897;42.640;23.310;2023-04-28T03:37:32;94212.66;;;5.62;56.40
11682;BME280;5897;42.640;23.310;2023-04-28T03:39:59;94213.81;;;5.61;56.61
11682;BME280;5897;42.640;23.310;2023-04-28T03:42:27;94211.91;;;5.55;56.53
11682;BME280;5897;42.640;23.310;2023-04-28T03:44:54;94190.91;;;5.43;56.34
11682;BME280;5897;42.640;23.310;2023-04-28T03:47:20;94215.69;;;5.64;55.58
11682;BME280;5897;42.640;23.310;2023-04-28T03:49:47;94219.53;;;5.67;55.70
11682;BME280;5897;42.640;23.310;2023-04-28T03:52:14;94221.84;;;5.61;55.61
11682;BME280;5897;42.640;23.310;2023-04-28T03:54:41;94222.59;;;5.72;55.10
11682;BME280;5897;42.640;23.310;2023-04-28T03:57:08;94222.22;;;5.67;56.87
11682;BME280;5897;42.640;23.310;2023-04-28T03:59:36;94224.13;;;5.80;55.32
11682;BME280;5897;42.640;23.310;2023-04-28T04:02:03;94234.06;;;5.87;54.72
11682;BME280;5897;42.640;23.310;2023-04-28T04:04:30;94222.56;;;5.76;54.44
11682;BME280;5897;42.640;23.310;2023-04-28T04:06:57;94239.41;;;5.87;55.14
11682;BME280;5897;42.640;23.310;2023-04-28T04:09:24;94257.78;;;5.85;54.83
11682;BME280;5897;42.640;23.310;2023-04-28T04:11:51;94245.19;;;5.82;54.74
11682;BME280;5897;42.640;23.310;2023-04-28T04:14:18;94243.59;;;5.95;54.29
11682;BME280;5897;42.640;23.310;2023-04-28T04:16:46;94239.75;;;5.96;54.76
11682;BME280;5897;42.640;23.310;2023-04-28T04:19:13;94246.94;;;6.16;54.20
11682;BME280;5897;42.640;23.310;2023-04-28T04:21:40;94249.25;;;6.14;54.71
11682;BME280;5897;42.640;23.310;2023-04-28T04:24:07;94249.59;;;6.27;53.76
11682;BME280;5897;42.640;23.310;2023-04-28T04:26:34;94251.84;;;6.35;53.13
11682;BME280;5897;42.640;23.310;2023-04-28T04:29:00;94257.53;;;6.44;54.18
11682;BME280;5897;42.640;23.310;2023-04-28T04:31:27;94257.19;;;6.39;53.82
11682;BME280;5897;42.640;23.310;2023-04-28T04:33:55;94252.13;;;6.55;53.67
11682;BME280;5897;42.640;23.310;2023-04-28T04:36:22;94257.44;;;6.65;52.66
11682;BME280;5897;42.640;23.310;2023-04-28T04:38:49;94258.63;;;6.61;52.37
11682;BME280;5897;42.640;23.310;2023-04-28T04:41:17;94245.25;;;6.47;53.73
11682;BME280;5897;42.640;23.310;2023-04-28T04:43:45;94259.75;;;6.63;52.92
11682;BME280;5897;42.640;23.310;2023-04-28T04:46:12;94267.41;;;6.61;53.26
11682;BME280;5897;42.640;23.310;2023-04-28T04:48:39;94261.91;;;6.86;53.93
11682;BME280;5897;42.640;23.310;2023-04-28T04:51:07;94271.88;;;6.85;53.04
11682;BME280;5897;42.640;23.310;2023-04-28T04:53:34;94268.78;;;6.87;53.22
11682;BME280;5897;42.640;23.310;2023-04-28T04:56:00;94277.16;;;6.99;52.76
11682;BME280;5897;42.640;23.310;2023-04-28T04:58:27;94279.50;;;6.90;53.49
11682;BME280;5897;42.640;23.310;2023-04-28T05:00:54;94277.66;;;6.80;53.47
11682;BME280;5897;42.640;23.310;2023-04-28T05:03:21;94288.69;;;6.93;54.49
11682;BME280;5897;42.640;23.310;2023-04-28T05:05:48;94281.72;;;7.06;52.78
11682;BME280;5897;42.640;23.310;2023-04-28T05:08:17;94298.16;;;7.11;54.99
11682;BME280;5897;42.640;23.310;2023-04-28T05:10:43;94292.25;;;7.30;53.23
11682;BME280;5897;42.640;23.310;2023-04-28T05:13:10;94296.97;;;7.16;54.12
11682;BME280;5897;42.640;23.310;2023-04-28T05:15:37;94296.94;;;7.19;53.89
11682;BME280;5897;42.640;23.310;2023-04-28T05:18:04;94295.06;;;7.16;54.34
11682;BME280;5897;42.640;23.310;2023-04-28T05:20:35;94289.28;;;7.21;53.48
11682;BME280;5897;42.640;23.310;2023-04-28T05:23:02;94300.59;;;7.43;54.17
11682;BME280;5897;42.640;23.310;2023-04-28T05:25:30;94302.09;;;7.51;53.56
11682;BME280;5897;42.640;23.310;2023-04-28T05:27:57;94305.06;;;7.60;53.06
11682;BME280;5897;42.640;23.310;2023-04-28T05:30:23;94294.59;;;7.72;52.91
11682;BME280;5897;42.640;23.310;2023-04-28T05:32:52;94274.28;;;7.68;52.92
11682;BME280;5897;42.640;23.310;2023-04-28T05:35:19;94290.66;;;7.80;52.71
11682;BME280;5897;42.640;23.310;2023-04-28T05:37:46;94284.84;;;7.85;51.64
11682;BME280;5897;42.640;23.310;2023-04-28T05:40:13;94291.03;;;7.82;51.44
11682;BME280;5897;42.640;23.310;2023-04-28T05:42:41;94291.00;;;7.86;51.40
11682;BME280;5897;42.640;23.310;2023-04-28T05:45:09;94287.63;;;7.78;51.68
11682;BME280;5897;42.640;23.310;2023-04-28T05:47:36;94290.31;;;7.78;52.99
11682;BME280;5897;42.640;23.310;2023-04-28T05:50:03;94291.66;;;7.97;52.21
11682;BME280;5897;42.640;23.310;2023-04-28T05:52:30;94297.03;;;7.97;51.49
11682;BME280;5897;42.640;23.310;2023-04-28T05:54:57;94295.44;;;8.03;52.21
11682;BME280;5897;42.640;23.310;2023-04-28T05:57:24;94297.16;;;8.23;53.06
11682;BME280;5897;42.640;23.310;2023-04-28T05:59:52;94300.66;;;8.17;51.39
11682;BME280;5897;42.640;23.310;2023-04-28T06:02:19;94305.13;;;7.93;53.24
11682;BME280;5897;42.640;23.310;2023-04-28T06:04:46;94298.31;;;8.19;54.76
11682;BME280;5897;42.640;23.310;2023-04-28T06:07:12;94295.16;;;8.31;57.57
11682;BME280;5897;42.640;23.310;2023-04-28T06:09:39;94306.97;;;8.40;50.10
11682;BME280;5897;42.640;23.310;2023-04-28T06:12:06;94305.44;;;8.39;50.83
11682;BME280;5897;42.640;23.310;2023-04-28T06:14:33;94303.19;;;8.34;49.66
11682;BME280;5897;42.640;23.310;2023-04-28T06:17:02;94290.84;;;8.37;49.93
11682;BME280;5897;42.640;23.310;2023-04-28T06:19:28;94289.53;;;8.48;49.88
11682;BME280;5897;42.640;23.310;2023-04-28T06:21:55;94288.56;;;8.65;49.64
11682;BME280;5897;42.640;23.310;2023-04-28T06:24:22;94293.03;;;8.75;47.80
11682;BME280;5897;42.640;23.310;2023-04-28T06:26:49;94286.22;;;8.67;48.41
11682;BME280;5897;42.640;23.310;2023-04-28T06:29:15;94285.69;;;8.79;48.10
11682;BME280;5897;42.640;23.310;2023-04-28T06:31:42;94295.78;;;8.98;47.89
11682;BME280;5897;42.640;23.310;2023-04-28T06:34:10;94300.34;;;9.05;47.46
11682;BME280;5897;42.640;23.310;2023-04-28T06:36:37;94296.56;;;8.99;47.62
11682;BME280;5897;42.640;23.310;2023-04-28T06:39:04;94290.97;;;9.13;49.11
11682;BME280;5897;42.640;23.310;2023-04-28T06:41:30;94298.31;;;9.35;46.56
11682;BME280;5897;42.640;23.310;2023-04-28T06:43:57;94298.31;;;9.35;48.09
11682;BME280;5897;42.640;23.310;2023-04-28T06:46:24;94294.81;;;9.38;45.37
11682;BME280;5897;42.640;23.310;2023-04-28T06:48:50;94292.91;;;9.35;44.85
11682;BME280;5897;42.640;23.310;2023-04-28T06:51:19;94286.53;;;9.49;44.28
11682;BME280;5897;42.640;23.310;2023-04-28T06:53:45;94296.47;;;9.55;45.03
11682;BME280;5897;42.640;23.310;2023-04-28T06:56:13;94291.06;;;9.55;43.93
11682;BME280;5897;42.640;23.310;2023-04-28T06:58:39;94283.97;;;9.65;45.60
11682;BME280;5897;42.640;23.310;2023-04-28T07:01:06;94290.47;;;9.67;46.43
11682;BME280;5897;42.640;23.310;2023-04-28T07:03:33;94282.84;;;9.85;44.66
11682;BME280;5897;42.640;23.310;2023-04-28T07:06:00;94286.47;;;9.98;44.49
11682;BME280;5897;42.640;23.310;2023-04-28T07:08:29;94287.03;;;10.09;45.57
11682;BME280;5897;42.640;23.310;2023-04-28T07:10:56;94285.94;;;10.26;45.37
11682;BME280;5897;42.640;23.310;2023-04-28T07:13:22;94291.41;;;10.23;45.54
11682;BME280;5897;42.640;23.310;2023-04-28T07:15:49;94285.75;;;10.37;45.82
11682;BME280;5897;42.640;23.310;2023-04-28T07:18:16;94272.16;;;10.60;44.93
11682;BME280;5897;42.640;23.310;2023-04-28T07:20:43;94283.44;;;10.74;45.55
11682;BME280;5897;42.640;23.310;2023-04-28T07:23:10;94274.94;;;10.76;44.27
11682;BME280;5897;42.640;23.310;2023-04-28T07:25:38;94278.22;;;10.83;42.04
11682;BME280;5897;42.640;23.310;2023-04-28T07:28:06;94285.59;;;10.63;43.92
11682;BME280;5897;42.640;23.310;2023-04-28T07:30:33;94280.75;;;10.74;43.73
11682;BME280;5897;42.640;23.310;2023-04-28T07:33:00;94276.66;;;11.02;43.48
11682;BME280;5897;42.640;23.310;2023-04-28T07:35:27;94266.78;;;11.27;42.29
11682;BME280;5897;42.640;23.310;2023-04-28T07:37:54;94277.31;;;11.41;41.53
11682;BME280;5897;42.640;23.310;2023-04-28T07:40:22;94281.03;;;11.47;41.39
11682;BME280;5897;42.640;23.310;2023-04-28T07:42:50;94271.22;;;11.53;40.98
11682;BME280;5897;42.640;23.310;2023-04-28T07:45:17;94283.53;;;11.38;40.75
11682;BME280;5897;42.640;23.310;2023-04-28T07:47:44;94279.66;;;11.39;41.51
11682;BME280;5897;42.640;23.310;2023-04-28T07:50:11;94281.16;;;11.56;40.31
11682;BME280;5897;42.640;23.310;2023-04-28T07:52:38;94277.91;;;11.65;39.98
11682;BME280;5897;42.640;23.310;2023-04-28T07:55:05;94279.50;;;11.62;41.21
11682;BME280;5897;42.640;23.310;2023-04-28T07:57:32;94280.59;;;11.81;40.08
11682;BME280;5897;42.640;23.310;2023-04-28T08:00:00;94278.81;;;11.90;40.45
11682;BME280;5897;42.640;23.310;2023-04-28T08:02:27;94273.94;;;12.13;42.06
11682;BME280;5897;42.640;23.310;2023-04-28T08:04:54;94277.94;;;12.09;39.37
11682;BME280;5897;42.640;23.310;2023-04-28T08:07:21;94268.47;;;12.29;39.03
11682;BME280;5897;42.640;23.310;2023-04-28T08:09:48;94281.03;;;12.64;39.08
11682;BME280;5897;42.640;23.310;2023-04-28T08:12:15;94283.44;;;12.75;38.64
11682;BME280;5897;42.640;23.310;2023-04-28T08:14:42;94272.34;;;12.98;36.02
11682;BME280;5897;42.640;23.310;2023-04-28T08:17:10;94281.03;;;13.05;36.57
11682;BME280;5897;42.640;23.310;2023-04-28T08:19:37;94273.22;;;13.20;35.93
11682;BME280;5897;42.640;23.310;2023-04-28T08:22:04;94260.41;;;13.33;38.00
11682;BME280;5897;42.640;23.310;2023-04-28T08:24:31;94276.78;;;13.42;37.71
11682;BME280;5897;42.640;23.310;2023-04-28T08:27:00;94273.84;;;13.49;36.77
11682;BME280;5897;42.640;23.310;2023-04-28T08:29:28;94263.34;;;13.26;38.05
11682;BME280;5897;42.640;23.310;2023-04-28T08:31:55;94278.00;;;13.53;37.20
11682;BME280;5897;42.640;23.310;2023-04-28T08:34:23;94275.13;;;13.69;37.16
11682;BME280;5897;42.640;23.310;2023-04-28T08:36:50;94259.38;;;13.77;35.19
11682;BME280;5897;42.640;23.310;2023-04-28T08:39:17;94261.66;;;14.12;35.75
11682;BME280;5897;42.640;23.310;2023-04-28T08:41:44;94269.81;;;14.25;35.22
11682;BME280;5897;42.640;23.310;2023-04-28T08:44:11;94270.50;;;14.38;34.42
11682;BME280;5897;42.640;23.310;2023-04-28T08:46:39;94271.16;;;14.42;34.13
11682;BME280;5897;42.640;23.310;2023-04-28T08:49:13;94257.03;;;14.34;33.52
11682;BME280;5897;42.640;23.310;2023-04-28T08:51:44;94250.72;;;14.59;34.10
11682;BME280;5897;42.640;23.310;2023-04-28T08:54:13;94258.44;;;14.39;34.19
11682;BME280;5897;42.640;23.310;2023-04-28T08:56:41;94256.78;;;14.63;34.45
11682;BME280;5897;42.640;23.310;2023-04-28T08:59:11;94259.16;;;14.82;33.50
11682;BME280;5897;42.640;23.310;2023-04-28T09:01:38;94260.88;;;15.19;32.55
11682;BME280;5897;42.640;23.310;2023-04-28T09:04:05;94250.06;;;15.07;33.08
11682;BME280;5897;42.640;23.310;2023-04-28T09:06:34;94233.09;;;14.94;33.72
11682;BME280;5897;42.640;23.310;2023-04-28T09:09:22;94246.94;;;14.56;33.14
11682;BME280;5897;42.640;23.310;2023-04-28T09:11:50;94232.53;;;14.99;34.12
11682;BME280;5897;42.640;23.310;2023-04-28T09:14:18;94235.59;;;15.10;33.54
11682;BME280;5897;42.640;23.310;2023-04-28T09:16:44;94229.09;;;15.16;32.26
11682;BME280;5897;42.640;23.310;2023-04-28T09:19:11;94216.28;;;15.26;32.79
11682;BME280;5897;42.640;23.310;2023-04-28T09:21:45;94226.22;;;15.11;31.60
11682;BME280;5897;42.640;23.310;2023-04-28T09:24:26;94210.16;;;15.04;32.12
11682;BME280;5897;42.640;23.310;2023-04-28T09:26:53;94226.41;;;15.56;33.31
11682;BME280;5897;42.640;23.310;2023-04-28T09:29:20;94215.25;;;15.90;30.93
11682;BME280;5897;42.640;23.310;2023-04-28T09:31:47;94222.69;;;15.98;32.15
11682;BME280;5897;42.640;23.310;2023-04-28T09:34:14;94214.94;;;16.06;31.00
11682;BME280;5897;42.640;23.310;2023-04-28T09:36:41;94213.16;;;16.03;31.52
11682;BME280;5897;42.640;23.310;2023-04-28T09:39:08;94206.31;;;16.25;31.18
11682;BME280;5897;42.640;23.310;2023-04-28T09:41:38;94212.69;;;16.58;31.08
11682;BME280;5897;42.640;23.310;2023-04-28T09:44:09;94207.69;;;16.57;30.48
11682;BME280;5897;42.640;23.310;2023-04-28T10:03:15;94183.03;;;17.67;28.54
11682;BME280;5897;42.640;23.310;2023-04-28T10:05:42;94185.63;;;17.61;28.73
11682;BME280;5897;42.640;23.310;2023-04-28T10:08:10;94183.69;;;18.00;28.07
11682;BME280;5897;42.640;23.310;2023-04-28T10:10:38;94176.09;;;17.80;28.22
11682;BME280;5897;42.640;23.310;2023-04-28T10:13:06;94180.34;;;17.81;28.39
11682;BME280;5897;42.640;23.310;2023-04-28T10:15:33;94172.31;;;17.54;29.51
11682;BME280;5897;42.640;23.310;2023-04-28T10:18:01;94173.63;;;17.35;27.79
11682;BME280;5897;42.640;23.310;2023-04-28T10:20:31;94163.84;;;18.14;27.71
11682;BME280;5897;42.640;23.310;2023-04-28T10:23:10;94173.81;;;18.40;26.85
11682;BME280;5897;42.640;23.310;2023-04-28T10:25:47;94172.75;;;18.00;26.84
11682;BME280;5897;42.640;23.310;2023-04-28T10:28:15;94169.50;;;17.87;28.41
11682;BME280;5897;42.640;23.310;2023-04-28T10:31:09;94168.78;;;17.86;28.06
11682;BME280;5897;42.640;23.310;2023-04-28T10:33:37;94159.16;;;18.29;28.06
11682;BME280;5897;42.640;23.310;2023-04-28T10:36:06;94148.72;;;18.42;27.21
11682;BME280;5897;42.640;23.310;2023-04-28T10:38:34;94152.50;;;18.59;26.17
11682;BME280;5897;42.640;23.310;2023-04-28T10:41:02;94144.38;;;18.79;26.60
11682;BME280;5897;42.640;23.310;2023-04-28T10:43:36;94150.00;;;19.04;26.19
11682;BME280;5897;42.640;23.310;2023-04-28T10:46:05;94134.34;;;19.05;26.78
11682;BME280;5897;42.640;23.310;2023-04-28T10:48:54;94147.75;;;19.17;25.87
11682;BME280;5897;42.640;23.310;2023-04-28T10:51:26;94138.88;;;19.22;25.65
11682;BME280;5897;42.640;23.310;2023-04-28T10:54:16;94141.91;;;19.10;25.17
11682;BME280;5897;42.640;23.310;2023-04-28T10:57:18;94132.00;;;18.98;24.60
11682;BME280;5897;42.640;23.310;2023-04-28T10:59:46;94128.22;;;19.10;24.69
11682;BME280;5897;42.640;23.310;2023-04-28T11:02:38;94119.38;;;18.86;25.26
11682;BME280;5897;42.640;23.310;2023-04-28T11:05:12;94127.03;;;19.16;25.33
11682;BME280;5897;42.640;23.310;2023-04-28T11:11:17;94118.59;;;19.89;24.25
11682;BME280;5897;42.640;23.310;2023-04-28T11:13:44;94113.84;;;19.89;24.23
11682;BME280;5897;42.640;23.310;2023-04-28T11:16:17;94117.75;;;20.23;23.50
11682;BME280;5897;42.640;23.310;2023-04-28T11:19:01;94114.00;;;20.77;23.49
11682;BME280;5897;42.640;23.310;2023-04-28T11:21:32;94108.38;;;20.60;23.29
11682;BME280;5897;42.640;23.310;2023-04-28T11:24:07;94111.44;;;20.68;23.08
11682;BME280;5897;42.640;23.310;2023-04-28T11:26:36;94109.72;;;20.96;23.13
11682;BME280;5897;42.640;23.310;2023-04-28T11:29:03;94104.75;;;20.74;23.45
11682;BME280;5897;42.640;23.310;2023-04-28T11:31:30;94095.44;;;20.92;23.15
11682;BME280;5897;42.640;23.310;2023-04-28T11:33:59;94105.97;;;20.99;22.24
11682;BME280;5897;42.640;23.310;2023-04-28T11:36:30;94090.91;;;21.20;21.64
11682;BME280;5897;42.640;23.310;2023-04-28T11:39:01;94098.22;;;21.34;21.60
11682;BME280;5897;42.640;23.310;2023-04-28T11:41:29;94097.47;;;21.70;21.57
11682;BME280;5897;42.640;23.310;2023-04-28T11:43:56;94088.28;;;22.00;21.62
11682;BME280;5897;42.640;23.310;2023-04-28T11:46:24;94087.34;;;21.56;21.40
11682;BME280;5897;42.640;23.310;2023-04-28T11:49:01;94086.31;;;21.53;21.33
11682;BME280;5897;42.640;23.310;2023-04-28T11:51:30;94079.94;;;21.73;21.61
11682;BME280;5897;42.640;23.310;2023-04-28T11:54:00;94089.13;;;21.59;21.75
11682;BME280;5897;42.640;23.310;2023-04-28T11:56:28;94083.47;;;21.73;20.28
11682;BME280;5897;42.640;23.310;2023-04-28T11:59:06;94086.94;;;21.68;20.75
11682;BME280;5897;42.640;23.310;2023-04-28T12:01:43;94079.09;;;22.14;20.41
11682;BME280;5897;42.640;23.310;2023-04-28T12:04:10;94078.56;;;22.10;19.35
11682;BME280;5897;42.640;23.310;2023-04-28T12:06:38;94086.38;;;22.23;19.54
11682;BME280;5897;42.640;23.310;2023-04-28T12:09:16;94071.94;;;22.72;19.17
11682;BME280;5897;42.640;23.310;2023-04-28T12:11:54;94065.44;;;22.75;19.97
11682;BME280;5897;42.640;23.310;2023-04-28T12:14:22;94067.44;;;22.52;19.57
11682;BME280;5897;42.640;23.310;2023-04-28T12:16:49;94063.91;;;22.46;19.51
11682;BME280;5897;42.640;23.310;2023-04-28T12:19:17;94067.88;;;22.40;18.88
11682;BME280;5897;42.640;23.310;2023-04-28T12:21:58;94059.19;;;22.52;19.11
11682;BME280;5897;42.640;23.310;2023-04-28T12:24:27;94050.34;;;22.26;19.61
11682;BME280;5897;42.640;23.310;2023-04-28T12:26:54;94060.31;;;22.13;19.81
11682;BME280;5897;42.640;23.310;2023-04-28T12:29:40;94062.75;;;21.89;20.39
11682;BME280;5897;42.640;23.310;2023-04-28T12:32:09;94058.13;;;22.28;20.62
11682;BME280;5897;42.640;23.310;2023-04-28T12:34:36;94056.25;;;21.92;19.59
11682;BME280;5897;42.640;23.310;2023-04-28T12:37:04;94065.28;;;21.87;20.96
11682;BME280;5897;42.640;23.310;2023-04-28T12:39:33;94047.09;;;22.22;20.47
11682;BME280;5897;42.640;23.310;2023-04-28T12:42:01;94048.91;;;22.47;20.05
11682;BME280;5897;42.640;23.310;2023-04-28T12:44:31;94042.66;;;22.52;20.25
11682;BME280;5897;42.640;23.310;2023-04-28T12:47:03;94050.66;;;23.05;19.55
11682;BME280;5897;42.640;23.310;2023-04-28T12:49:31;94029.38;;;22.84;18.95
11682;BME280;5897;42.640;23.310;2023-04-28T12:51:59;94036.63;;;23.20;18.61
11682;BME280;5897;42.640;23.310;2023-04-28T12:54:26;94031.34;;;22.89;19.55
11682;BME280;5897;42.640;23.310;2023-04-28T12:56:54;94027.88;;;22.72;20.04
11682;BME280;5897;42.640;23.310;2023-04-28T12:59:21;94027.56;;;23.08;19.59
11682;BME280;5897;42.640;23.310;2023-04-28T13:01:49;94021.34;;;23.19;20.11
11682;BME280;5897;42.640;23.310;2023-04-28T13:04:16;94016.22;;;23.45;19.19
11682;BME280;5897;42.640;23.310;2023-04-28T13:06:43;94010.41;;;23.65;19.88
11682;BME280;5897;42.640;23.310;2023-04-28T13:09:10;93998.88;;;23.61;19.37
11682;BME280;5897;42.640;23.310;2023-04-28T13:11:37;94012.19;;;23.57;19.75
11682;BME280;5897;42.640;23.310;2023-04-28T13:14:05;94006.28;;;23.31;19.87
11682;BME280;5897;42.640;23.310;2023-04-28T13:16:32;94007.56;;;23.19;19.92
11682;BME280;5897;42.640;23.310;2023-04-28T13:18:59;94015.88;;;22.53;20.43
11682;BME280;5897;42.640;23.310;2023-04-28T13:21:26;94008.06;;;22.29;20.22
11682;BME280;5897;42.640;23.310;2023-04-28T13:23:54;94020.41;;;21.64;20.11
11682;BME280;5897;42.640;23.310;2023-04-28T13:26:21;94008.63;;;21.53;21.30
11682;BME280;5897;42.640;23.310;2023-04-28T13:28:50;94008.56;;;21.42;20.61
11682;BME280;5897;42.640;23.310;2023-04-28T13:31:18;94022.91;;;21.15;22.16